createdAt,value
2024-02-12T00:00:37.962Z,97617.28
2024-02-12T00:03:07.496Z,97617.28
2024-02-12T00:05:37.993Z,97613.94
2024-02-12T00:08:12.292Z,97629.25
2024-02-12T00:10:41.263Z,97623.34
2024-02-12T00:13:10.077Z,97623.47
2024-02-12T00:15:39.879Z,97621.06
2024-02-12T00:18:09.099Z,97626.84
2024-02-12T00:20:37.913Z,97628.56
2024-02-12T00:23:08.116Z,97620.13
2024-02-12T00:25:36.950Z,97625.22
2024-02-12T00:28:09.484Z,97618.50
2024-02-12T00:30:40.886Z,97622.69
2024-02-12T00:33:10.870Z,97620.28
2024-02-12T00:35:42.781Z,97623.63
2024-02-12T00:38:13.731Z,97607.66
2024-02-12T00:40:42.659Z,97619.44
2024-02-12T00:43:11.629Z,97628.84
2024-02-12T00:45:43.091Z,97615.31
2024-02-12T00:48:11.987Z,97626.44
2024-02-12T00:50:40.763Z,97626.44
2024-02-12T00:53:11.290Z,97628.16
2024-02-12T00:55:41.358Z,97625.63
2024-02-12T00:58:11.467Z,97619.72
2024-02-12T01:00:40.160Z,97619.72
2024-02-12T01:03:08.883Z,97624.81
2024-02-12T01:05:37.698Z,97629.13
2024-02-12T01:08:08.097Z,97623.34
2024-02-12T01:10:36.813Z,97624.19
2024-02-12T01:13:06.870Z,97627.78
2024-02-12T01:15:35.470Z,97626.03
2024-02-12T01:18:10.448Z,97635.44
2024-02-12T01:20:40.627Z,97634.63
2024-02-12T01:23:12.077Z,97630.47
2024-02-12T01:25:44.198Z,97631.41
2024-02-12T01:28:16.747Z,97634.75
2024-02-12T01:30:45.529Z,97635.69
2024-02-12T01:33:17.097Z,97640.78
2024-02-12T01:35:45.852Z,97643.34
2024-02-12T01:38:15.674Z,97651.81
2024-02-12T01:40:44.539Z,97650.19
2024-02-12T01:43:32.277Z,97653.69
2024-02-12T01:46:01.822Z,97654.50
2024-02-12T01:48:31.813Z,97654.50
2024-02-12T01:51:07.585Z,97655.44
2024-02-12T01:53:38.747Z,97661.47
2024-02-12T01:56:08.838Z,97660.69
2024-02-12T01:58:42.253Z,97657.16
2024-02-12T02:01:14.627Z,97668.31
2024-02-12T02:03:44.442Z,97664.97
2024-02-12T02:06:16.257Z,97654.91
2024-02-12T02:08:46.328Z,97655.72
2024-02-12T02:11:16.753Z,97671.03
2024-02-12T02:13:46.859Z,97665.91
2024-02-12T02:16:17.891Z,97669.41
2024-02-12T02:18:50.051Z,97671.13
2024-02-12T02:21:19.381Z,97666.03
2024-02-12T02:23:48.358Z,97664.44
2024-02-12T02:26:18.433Z,97674.78
2024-02-12T02:28:47.165Z,97676.34
2024-02-12T02:31:15.766Z,97676.34
2024-02-12T02:33:44.985Z,97678.91
2024-02-12T02:36:13.826Z,97679.72
2024-02-12T02:38:42.594Z,97676.34
2024-02-12T02:41:11.574Z,97682.28
2024-02-12T02:43:41.563Z,97683.09
2024-02-12T02:46:10.193Z,97681.31
2024-02-12T02:48:38.865Z,97691.53
2024-02-12T02:51:07.781Z,97697.44
2024-02-12T02:53:36.598Z,97692.47
2024-02-12T02:56:05.886Z,97701.72
2024-02-12T02:58:34.481Z,97702.53
2024-02-12T03:01:05.026Z,97701.72
2024-02-12T03:03:33.931Z,97705.88
2024-02-12T03:06:05.351Z,97707.66
2024-02-12T03:08:35.612Z,97701.72
2024-02-12T03:11:06.052Z,97711.81
2024-02-12T03:13:37.753Z,97713.53
2024-02-12T03:16:08.886Z,97720.38
2024-02-12T03:18:37.520Z,97722.94
2024-02-12T03:21:06.202Z,97726.28
2024-02-12T03:23:34.865Z,97728.84
2024-02-12T03:26:07.282Z,97728.84
2024-02-12T03:28:36.835Z,97732.31
2024-02-12T03:31:07.311Z,97737.41
2024-02-12T03:33:37.427Z,97739.97
2024-02-12T03:36:07.149Z,97747.63
2024-02-12T03:38:36.028Z,97751.91
2024-02-12T03:41:06.051Z,97740.94
2024-02-12T03:43:37.288Z,97748.56
2024-02-12T03:46:08.231Z,97742.66
2024-02-12T03:48:54.503Z,97758.78
2024-02-12T03:51:45.583Z,97763.03
2024-02-12T03:54:31.653Z,97758.09
2024-02-12T03:57:17.918Z,97750.44
2024-02-12T03:59:55.781Z,97759.84
2024-02-12T04:02:29.190Z,97771.75
2024-02-12T04:04:58.102Z,97775.28
2024-02-12T04:07:26.867Z,97777.69
2024-02-12T04:09:55.763Z,97783.59
2024-02-12T04:12:24.444Z,97791.22
2024-02-12T04:14:53.593Z,97790.28
2024-02-12T04:17:22.331Z,97797.94
2024-02-12T04:19:52.368Z,97795.41
2024-02-12T04:22:21.770Z,97802.25
2024-02-12T04:24:51.403Z,97805.59
2024-02-12T04:27:21.683Z,97803.84
2024-02-12T04:29:50.317Z,97809.75
2024-02-12T04:32:19.086Z,97811.50
2024-02-12T04:34:49.650Z,97817.41
2024-02-12T04:37:19.816Z,97822.50
2024-02-12T04:39:50.793Z,97819.97
2024-02-12T04:42:21.202Z,97825.06
2024-02-12T04:44:49.948Z,97825.06
2024-02-12T04:47:19.518Z,97835.13
2024-02-12T04:49:48.405Z,97835.91
2024-02-12T04:52:17.773Z,97835.91
2024-02-12T04:54:47.778Z,97838.47
2024-02-12T04:57:16.633Z,97841.84
2024-02-12T04:59:46.212Z,97835.91
2024-02-12T05:02:14.890Z,97842.63
2024-02-12T05:04:43.498Z,97842.63
2024-02-12T05:07:12.548Z,97845.19
2024-02-12T05:09:41.532Z,97851.09
2024-02-12T05:12:11.748Z,97846.94
2024-02-12T05:14:40.569Z,97852.84
2024-02-12T05:17:12.768Z,97851.09
2024-02-12T05:19:59.138Z,97863.03
2024-02-12T05:22:37.122Z,97856.31
2024-02-12T05:25:07.467Z,97858.88
2024-02-12T05:27:37.761Z,97861.41
2024-02-12T05:30:08.138Z,97863.03
2024-02-12T05:32:37.700Z,97861.41
2024-02-12T05:35:08.113Z,97861.41
2024-02-12T05:37:36.766Z,97866.53
2024-02-12T05:40:08.815Z,97877.53
2024-02-12T05:42:39.117Z,97881.81
2024-02-12T05:45:10.846Z,97881.81
2024-02-12T05:47:41.676Z,97886.91
2024-02-12T05:50:10.803Z,97885.28
2024-02-12T05:52:40.800Z,97893.78
2024-02-12T05:55:09.622Z,97897.13
2024-02-12T05:57:39.670Z,97902.34
2024-02-12T06:00:11.765Z,97904.75
2024-02-12T06:02:40.520Z,97899.81
2024-02-12T06:05:09.970Z,97916.72
2024-02-12T06:07:41.183Z,97917.50
2024-02-12T06:10:10.745Z,97920.19
2024-02-12T06:12:40.767Z,97920.19
2024-02-12T06:15:11.247Z,97921.81
2024-02-12T06:17:40.381Z,97925.28
2024-02-12T06:20:12.456Z,97928.66
2024-02-12T06:22:42.251Z,97929.59
2024-02-12T06:25:11.635Z,97942.34
2024-02-12T06:27:41.570Z,97950.78
2024-02-12T06:30:13.379Z,97943.28
2024-02-12T06:32:42.948Z,97956.81
2024-02-12T06:35:11.872Z,97960.19
2024-02-12T06:37:40.727Z,97955.91
2024-02-12T06:40:13.601Z,97968.66
2024-02-12T06:42:44.563Z,97968.78
2024-02-12T06:45:15.114Z,97969.56
2024-02-12T06:47:44.229Z,97970.41
2024-02-12T06:50:13.775Z,97980.59
2024-02-12T06:52:42.670Z,97984.06
2024-02-12T06:55:12.016Z,97986.50
2024-02-12T06:57:40.758Z,97990.78
2024-02-12T07:00:16.959Z,98001.00
2024-02-12T07:02:46.940Z,98002.72
2024-02-12T07:05:19.463Z,98009.56
2024-02-12T07:07:48.480Z,98007.03
2024-02-12T07:10:17.512Z,98005.28
2024-02-12T07:12:48.495Z,98017.22
2024-02-12T07:15:18.644Z,98014.66
2024-02-12T07:17:49.583Z,98020.56
2024-02-12T07:20:19.231Z,98010.38
2024-02-12T07:22:48.622Z,98022.31
2024-02-12T07:25:17.445Z,98026.50
2024-02-12T07:27:46.054Z,98027.41
2024-02-12T07:30:15.718Z,98035.88
2024-02-12T07:32:47.576Z,98040.97
2024-02-12T07:35:16.717Z,98043.50
2024-02-12T07:37:45.379Z,98046.91
2024-02-12T07:40:14.091Z,98043.50
2024-02-12T07:42:44.667Z,98050.38
2024-02-12T07:45:15.197Z,98059.78
2024-02-12T07:47:46.009Z,98056.25
2024-02-12T07:50:15.382Z,98062.19
2024-02-12T07:52:44.144Z,98061.38
2024-02-12T07:55:13.312Z,98061.38
2024-02-12T07:57:43.128Z,98068.22
2024-02-12T08:00:16.300Z,98064.03
2024-02-12T08:02:47.537Z,98067.41
2024-02-12T08:05:17.813Z,98070.78
2024-02-12T08:07:57.411Z,98075.06
2024-02-12T08:10:31.809Z,98086.06
2024-02-12T08:13:01.000Z,98078.41
2024-02-12T08:15:30.424Z,98088.63
2024-02-12T08:18:00.598Z,98086.06
2024-02-12T08:20:29.712Z,98086.88
2024-02-12T08:22:58.460Z,98092.78
2024-02-12T08:25:28.362Z,98096.13
2024-02-12T08:27:57.938Z,98097.75
2024-02-12T08:30:26.603Z,98102.03
2024-02-12T08:32:55.744Z,98106.91
2024-02-12T08:35:25.902Z,98114.56
2024-02-12T08:37:56.836Z,98115.34
2024-02-12T08:40:28.110Z,98117.91
2024-02-12T08:42:57.889Z,98128.91
2024-02-12T08:45:26.814Z,98122.88
2024-02-12T08:47:55.552Z,98131.44
2024-02-12T08:50:25.798Z,98133.06
2024-02-12T08:52:55.580Z,98140.72
2024-02-12T08:55:24.429Z,98142.34
2024-02-12T08:57:53.461Z,98147.44
2024-02-12T09:00:23.137Z,98147.59
2024-02-12T09:02:51.898Z,98147.44
2024-02-12T09:05:20.861Z,98146.66
2024-02-12T09:07:51.443Z,98153.34
2024-02-12T09:10:22.718Z,98153.22
2024-02-12T09:12:53.883Z,98155.78
2024-02-12T09:15:24.025Z,98159.94
2024-02-12T09:17:53.765Z,98159.16
2024-02-12T09:20:22.829Z,98164.25
2024-02-12T09:22:53.058Z,98173.53
2024-02-12T09:25:23.372Z,98169.94
2024-02-12T09:27:53.180Z,98173.53
2024-02-12T09:30:21.858Z,98173.53
2024-02-12T09:32:50.597Z,98176.09
2024-02-12T09:35:20.857Z,98175.97
2024-02-12T09:37:51.443Z,98181.97
2024-02-12T09:40:24.781Z,98186.94
2024-02-12T09:42:58.063Z,98190.34
2024-02-12T09:45:29.653Z,98192.88
2024-02-12T09:48:00.733Z,98198.78
2024-02-12T09:50:30.172Z,98198.78
2024-02-12T09:52:59.692Z,98206.31
2024-02-12T09:55:30.741Z,98208.06
2024-02-12T09:58:00.471Z,98205.38
2024-02-12T10:00:30.576Z,98209.66
2024-02-12T10:02:59.216Z,98212.22
2024-02-12T10:05:29.374Z,98208.84
2024-02-12T10:07:59.081Z,98218.94
2024-02-12T10:10:29.102Z,98217.22
2024-02-12T10:12:57.710Z,98229.97
2024-02-12T10:15:26.946Z,98227.41
2024-02-12T10:17:57.696Z,98234.25
2024-02-12T10:20:27.011Z,98237.63
2024-02-12T10:22:56.895Z,98239.34
2024-02-12T10:25:26.957Z,98247.81
2024-02-12T10:27:59.872Z,98247.81
2024-02-12T10:30:28.458Z,98247.81
2024-02-12T10:33:00.315Z,98252.09
2024-02-12T10:35:31.808Z,98252.09
2024-02-12T10:38:01.194Z,98256.16
2024-02-12T10:40:32.701Z,98249.41
2024-02-12T10:43:06.879Z,98249.41
2024-02-12T10:45:36.325Z,98252.78
2024-02-12T10:48:09.264Z,98245.28
2024-02-12T10:50:39.711Z,98257.06
2024-02-12T10:53:09.936Z,98258.69
2024-02-12T10:55:40.299Z,98254.50
2024-02-12T10:58:11.231Z,98265.56
2024-02-12T11:00:49.363Z,98258.69
2024-02-12T11:03:33.817Z,98261.25
2024-02-12T11:06:04.175Z,98264.59
2024-02-12T11:08:38.085Z,98261.94
2024-02-12T11:11:16.076Z,98263.53
2024-02-12T11:13:47.770Z,98270.28
2024-02-12T11:16:18.813Z,98264.38
2024-02-12T11:18:54.849Z,98262.63
2024-02-12T11:21:27.298Z,98265.03
2024-02-12T11:24:08.572Z,98268.44
2024-02-12T11:26:41.771Z,98265.03
2024-02-12T11:29:13.344Z,98257.25
2024-02-12T11:31:45.352Z,98270.72
2024-02-12T11:34:14.778Z,98268.19
2024-02-12T11:36:43.993Z,98273.94
2024-02-12T11:39:12.894Z,98269.69
2024-02-12T11:41:41.974Z,98269.56
2024-02-12T11:44:12.306Z,98268.63
2024-02-12T11:46:42.088Z,98271.06
2024-02-12T11:49:11.161Z,98264.06
2024-02-12T11:51:42.181Z,98270.81
2024-02-12T11:54:14.828Z,98267.19
2024-02-12T11:56:45.118Z,98261.16
2024-02-12T11:59:16.226Z,98261.72
2024-02-12T12:01:45.338Z,98260.66
2024-02-12T12:04:13.960Z,98258.09
2024-02-12T12:06:42.644Z,98262.16
2024-02-12T12:09:12.665Z,98263.66
2024-02-12T12:11:43.353Z,98260.19
2024-02-12T12:14:14.218Z,98266.91
2024-02-12T12:17:27.166Z,98273.59
2024-02-12T12:19:32.443Z,98272.00
2024-02-12T12:22:01.961Z,98272.00
2024-02-12T12:24:33.372Z,98278.84
2024-02-12T12:27:02.023Z,98275.50
2024-02-12T12:29:32.085Z,98273.75
2024-02-12T12:32:02.278Z,98275.50
2024-02-12T12:34:31.220Z,98278.97
2024-02-12T12:36:59.862Z,98286.63
2024-02-12T12:39:28.518Z,98277.22
2024-02-12T12:41:57.642Z,98284.88
2024-02-12T12:44:28.442Z,98282.22
2024-02-12T12:46:58.514Z,98282.22
2024-02-12T12:49:27.273Z,98279.66
2024-02-12T12:51:56.103Z,98278.72
2024-02-12T12:54:24.719Z,98282.22
2024-02-12T12:56:53.479Z,98289.88
2024-02-12T12:59:22.471Z,98296.72
2024-02-12T13:01:51.122Z,98300.09
2024-02-12T13:04:21.129Z,98298.47
2024-02-12T13:06:51.529Z,98300.09
2024-02-12T13:09:20.650Z,98302.66
2024-02-12T13:11:52.700Z,98306.78
2024-02-12T13:14:21.874Z,98306.91
2024-02-12T13:16:51.508Z,98302.66
2024-02-12T13:19:21.655Z,98310.28
2024-02-12T13:21:51.009Z,98310.97
2024-02-12T13:24:21.732Z,98298.34
2024-02-12T13:26:50.763Z,98309.34
2024-02-12T13:29:25.597Z,98311.91
2024-02-12T13:31:54.465Z,98314.44
2024-02-12T13:34:26.025Z,98317.94
2024-02-12T13:36:55.052Z,98316.31
2024-02-12T13:39:26.700Z,98312.03
2024-02-12T13:41:56.032Z,98326.53
2024-02-12T13:44:25.136Z,98316.31
2024-02-12T13:46:53.829Z,98326.53
2024-02-12T13:49:23.801Z,98325.72
2024-02-12T13:51:52.772Z,98320.59
2024-02-12T13:54:21.593Z,98330.81
2024-02-12T13:56:50.348Z,98335.13
2024-02-12T13:59:19.256Z,98334.31
2024-02-12T14:01:53.722Z,98339.56
2024-02-12T14:04:28.581Z,98343.03
2024-02-12T14:06:58.467Z,98348.94
2024-02-12T14:09:27.406Z,98349.84
2024-02-12T14:11:56.025Z,98354.94
2024-02-12T14:14:24.663Z,98366.00
2024-02-12T14:16:55.526Z,98371.22
2024-02-12T14:19:24.232Z,98369.47
2024-02-12T14:21:56.121Z,98368.78
2024-02-12T14:24:24.705Z,98379.94
2024-02-12T14:26:59.778Z,98379.94
2024-02-12T14:29:29.911Z,98384.31
2024-02-12T14:32:37.352Z,98386.09
2024-02-12T14:34:48.332Z,98392.91
2024-02-12T14:37:18.655Z,98390.34
2024-02-12T14:39:47.298Z,98390.34
2024-02-12T14:42:18.381Z,98395.56
2024-02-12T14:44:47.330Z,98405.66
2024-02-12T14:47:16.273Z,98410.09
2024-02-12T14:49:45.984Z,98418.41
2024-02-12T14:52:14.859Z,98417.75
2024-02-12T14:54:44.891Z,98421.22
2024-02-12T14:57:15.221Z,98425.41
2024-02-12T14:59:44.256Z,98435.59
2024-02-12T15:02:15.453Z,98430.63
2024-02-12T15:04:45.359Z,98433.19
2024-02-12T15:07:14.936Z,98431.44
2024-02-12T15:09:47.872Z,98436.53
2024-02-12T15:12:22.712Z,98439.09
2024-02-12T15:14:52.393Z,98446.88
2024-02-12T15:17:21.425Z,98450.22
2024-02-12T15:19:51.426Z,98444.31
2024-02-12T15:22:24.430Z,98445.09
2024-02-12T15:24:55.223Z,98446.06
2024-02-12T15:27:23.870Z,98449.41
2024-02-12T15:29:52.430Z,98453.72
2024-02-12T15:32:24.207Z,98459.63
2024-02-12T15:34:53.840Z,98464.72
2024-02-12T15:37:22.680Z,98463.94
2024-02-12T15:39:51.317Z,98469.03
2024-02-12T15:42:24.051Z,98467.41
2024-02-12T15:44:53.644Z,98477.59
2024-02-12T15:47:22.531Z,98472.63
2024-02-12T15:49:53.278Z,98475.19
2024-02-12T15:52:26.209Z,98481.19
2024-02-12T15:54:55.013Z,98477.84
2024-02-12T15:57:27.492Z,98486.31
2024-02-12T15:59:56.142Z,98496.63
2024-02-12T16:02:25.261Z,98493.16
2024-02-12T16:04:54.283Z,98495.81
2024-02-12T16:07:22.929Z,98495.81
2024-02-12T16:09:51.517Z,98498.47
2024-02-12T16:12:22.223Z,98506.97
2024-02-12T16:14:52.730Z,98517.97
2024-02-12T16:17:21.537Z,98516.31
2024-02-12T16:19:50.366Z,98515.53
2024-02-12T16:22:20.142Z,98522.38
2024-02-12T16:24:49.686Z,98522.38
2024-02-12T16:27:18.760Z,98527.50
2024-02-12T16:29:48.262Z,98541.16
2024-02-12T16:32:19.046Z,98538.72
2024-02-12T16:34:49.827Z,98543.84
2024-02-12T16:37:18.664Z,98549.84
2024-02-12T16:39:47.390Z,98550.66
2024-02-12T16:42:17.368Z,98564.38
2024-02-12T16:44:46.052Z,98563.66
2024-02-12T16:47:15.004Z,98572.22
2024-02-12T16:49:45.880Z,98579.88
2024-02-12T16:52:14.586Z,98573.19
2024-02-12T16:54:44.838Z,98581.63
2024-02-12T16:57:14.524Z,98591.13
2024-02-12T16:59:46.526Z,98588.69
2024-02-12T17:02:16.140Z,98602.38
2024-02-12T17:04:46.110Z,98611.75
2024-02-12T17:07:15.675Z,98612.69
2024-02-12T17:09:46.506Z,98616.97
2024-02-12T17:12:15.160Z,98611.19
2024-02-12T17:14:44.594Z,98623.94
2024-02-12T17:17:13.445Z,98629.06
2024-02-12T17:19:42.699Z,98626.69
2024-02-12T17:22:13.002Z,98641.09
2024-02-12T17:24:41.585Z,98638.53
2024-02-12T17:27:14.180Z,98647.94
2024-02-12T17:29:44.244Z,98654.88
2024-02-12T17:32:13.637Z,98669.25
2024-02-12T17:34:42.627Z,98668.44
2024-02-12T17:37:12.812Z,98687.22
2024-02-12T17:39:41.508Z,98682.25
2024-02-12T17:42:10.622Z,98689.06
2024-02-12T17:44:39.488Z,98696.72
2024-02-12T17:47:09.331Z,98696.84
2024-02-12T17:49:39.199Z,98701.94
2024-02-12T17:52:08.436Z,98702.72
2024-02-12T17:54:38.404Z,98708.78
2024-02-12T17:57:09.802Z,98708.78
2024-02-12T17:59:38.697Z,98710.50
2024-02-12T18:02:07.655Z,98721.53
2024-02-12T18:04:38.603Z,98723.25
2024-02-12T18:07:07.623Z,98732.78
2024-02-12T18:09:39.244Z,98733.56
2024-02-12T18:12:08.713Z,98734.50
2024-02-12T18:14:37.517Z,98736.25
2024-02-12T18:17:09.954Z,98741.44
2024-02-12T18:19:42.286Z,98747.47
2024-02-12T18:22:11.026Z,98747.47
2024-02-12T18:24:41.184Z,98756.88
2024-02-12T18:27:11.484Z,98765.44
2024-02-12T18:29:40.226Z,98765.44
2024-02-12T18:32:10.116Z,98769.72
2024-02-12T18:34:39.150Z,98775.63
2024-02-12T18:37:08.268Z,98775.75
2024-02-12T18:39:41.394Z,98777.47
2024-02-12T18:42:10.272Z,98783.41
2024-02-12T18:44:39.001Z,98791.97
2024-02-12T18:47:08.312Z,98786.84
2024-02-12T18:49:37.197Z,98791.16
2024-02-12T18:52:07.048Z,98803.06
2024-02-12T18:54:35.611Z,98803.06
2024-02-12T18:57:06.423Z,98810.72
2024-02-12T18:59:35.092Z,98809.91
2024-02-12T19:02:05.146Z,98807.38
2024-02-12T19:04:33.976Z,98814.22
2024-02-12T19:07:05.102Z,98819.31
2024-02-12T19:09:33.782Z,98823.69
2024-02-12T19:12:02.546Z,98828.00
2024-02-12T19:14:32.563Z,98836.44
2024-02-12T19:17:01.217Z,98845.00
2024-02-12T19:19:30.026Z,98845.00
2024-02-12T19:21:58.811Z,98847.66
2024-02-12T19:24:27.466Z,98860.31
2024-02-12T19:26:57.305Z,98857.06
2024-02-12T19:29:26.845Z,98864.72
2024-02-12T19:31:57.063Z,98880.03
2024-02-12T19:34:26.569Z,98875.03
2024-02-12T19:36:56.232Z,98877.56
2024-02-12T19:39:24.962Z,98881.84
2024-02-12T19:41:53.627Z,98885.34
2024-02-12T19:44:22.399Z,98887.88
2024-02-12T19:46:52.752Z,98889.72
2024-02-12T19:49:23.714Z,98894.00
2024-02-12T19:51:52.449Z,98894.00
2024-02-12T19:54:21.101Z,98907.56
2024-02-12T19:56:49.759Z,98905.00
2024-02-12T19:59:18.579Z,98910.09
2024-02-12T20:01:47.528Z,98913.47
2024-02-12T20:04:16.351Z,98920.31
2024-02-12T20:06:47.920Z,98924.59
2024-02-12T20:09:18.434Z,98930.50
2024-02-12T20:11:47.506Z,98937.47
2024-02-12T20:14:16.354Z,98949.28
2024-02-12T20:16:45.273Z,98937.47
2024-02-12T20:19:15.517Z,98940.81
2024-02-12T20:21:45.706Z,98943.47
2024-02-12T20:24:14.680Z,98939.28
2024-02-12T20:26:44.892Z,98946.19
2024-02-12T20:29:13.876Z,98949.69
2024-02-12T20:31:42.663Z,98958.25
2024-02-12T20:34:11.313Z,98959.16
2024-02-12T20:36:40.188Z,98965.19
2024-02-12T20:39:11.009Z,98968.66
2024-02-12T20:41:41.206Z,98967.94
2024-02-12T20:44:10.103Z,98977.53
2024-02-12T20:46:38.788Z,98973.56
2024-02-12T20:49:08.377Z,98977.91
2024-02-12T20:51:37.037Z,98984.88
2024-02-12T20:54:06.513Z,98987.53
2024-02-12T20:56:36.871Z,98983.44
2024-02-12T20:59:05.520Z,98994.53
2024-02-12T21:01:34.213Z,99005.66
2024-02-12T21:04:02.977Z,98993.84
2024-02-12T21:06:31.706Z,99002.38
2024-02-12T21:09:02.760Z,99008.38
2024-02-12T21:11:31.792Z,99008.59
2024-02-12T21:14:01.827Z,99017.16
2024-02-12T21:16:30.446Z,99030.78
2024-02-12T21:18:59.396Z,99037.75
2024-02-12T21:21:28.177Z,99032.84
2024-02-12T21:23:56.997Z,99033.75
2024-02-12T21:26:25.714Z,99030.59
2024-02-12T21:28:54.611Z,99034.88
2024-02-12T21:31:25.140Z,99039.25
2024-02-12T21:33:53.848Z,99042.69
2024-02-12T21:36:22.903Z,99047.88
2024-02-12T21:38:51.650Z,99046.28
2024-02-12T21:41:37.968Z,99047.28
2024-02-12T21:44:07.291Z,99049.84
2024-02-12T21:46:37.930Z,99055.03
2024-02-12T21:49:08.681Z,99059.31
2024-02-12T21:51:37.594Z,99059.41
2024-02-12T21:54:07.134Z,99071.34
2024-02-12T21:56:35.978Z,99069.69
2024-02-12T21:59:04.939Z,99072.25
2024-02-12T22:01:33.668Z,99082.44
2024-02-12T22:04:03.763Z,99080.78
2024-02-12T22:06:32.426Z,99081.63
2024-02-12T22:09:01.095Z,99086.72
2024-02-12T22:11:35.212Z,99080.78
2024-02-12T22:14:04.066Z,99093.53
2024-02-12T22:16:35.252Z,99088.44
2024-02-12T22:19:05.623Z,99099.53
2024-02-12T22:21:35.674Z,99111.38
2024-02-12T22:24:04.982Z,99111.38
2024-02-12T22:26:33.710Z,99111.47
2024-02-12T22:29:02.650Z,99114.81
2024-02-12T22:31:31.740Z,99121.66
2024-02-12T22:34:00.932Z,99121.66
2024-02-12T22:36:30.996Z,99117.47
2024-02-12T22:39:01.008Z,99131.13
2024-02-12T22:41:29.657Z,99137.94
2024-02-12T22:43:58.340Z,99140.59
2024-02-12T22:46:27.092Z,99150.88
2024-02-12T22:48:55.722Z,99156.88
2024-02-12T22:51:24.594Z,99158.63
2024-02-12T22:53:54.655Z,99160.44
2024-02-12T22:56:23.362Z,99160.53
2024-02-12T22:58:52.651Z,99168.19
2024-02-12T23:01:21.658Z,99169.09
2024-02-12T23:03:50.626Z,99179.28
2024-02-12T23:06:19.738Z,99170.94
2024-02-12T23:08:48.626Z,99178.66
2024-02-12T23:11:18.897Z,99195.66
2024-02-12T23:13:47.615Z,99190.66
2024-02-12T23:16:16.509Z,99191.66
2024-02-12T23:18:45.155Z,99203.59
2024-02-12T23:21:14.303Z,99209.59
2024-02-12T23:23:43.606Z,99209.69
2024-02-12T23:26:12.766Z,99215.69
2024-02-12T23:28:43.233Z,99216.59
2024-02-12T23:31:12.069Z,99217.53
2024-02-12T23:33:42.037Z,99219.22
2024-02-12T23:36:11.288Z,99224.41
2024-02-12T23:38:40.683Z,99232.06
2024-02-12T23:41:09.559Z,99231.34
2024-02-12T23:43:38.263Z,99242.34
2024-02-12T23:46:08.301Z,99244.97
2024-02-12T23:48:37.091Z,99250.19
2024-02-12T23:51:08.804Z,99243.44
2024-02-12T23:53:37.860Z,99255.34
2024-02-12T23:56:07.674Z,99256.34
2024-02-12T23:58:36.484Z,99258.16
